sensor_id;sensor_type;location;lat;lon;timestamp;P1;durP1;ratioP1;P2;durP2;ratioP2
23743;SDS011;12052;53.478;10.182;2022-09-09T00:06:46;338.45;;;22.75;;
23743;SDS011;12052;53.478;10.182;2022-09-09T00:09:25;160.73;;;19.33;;
23743;SDS011;12052;53.478;10.182;2022-09-09T00:12:13;249.32;;;22.90;;
23743;SDS011;12052;53.478;10.182;2022-09-09T00:17:26;186.18;;;19.17;;
23743;SDS011;12052;53.478;10.182;2022-09-09T00:20:12;162.40;;;20.17;;
23743;SDS011;12052;53.478;10.182;2022-09-09T00:23:00;138.95;;;17.45;;
23743;SDS011;12052;53.478;10.182;2022-09-09T00:25:51;96.03;;;17.05;;
23743;SDS011;12052;53.478;10.182;2022-09-09T00:28:33;232.43;;;21.98;;
23743;SDS011;12052;53.478;10.182;2022-09-09T00:31:11;163.55;;;19.40;;
23743;SDS011;12052;53.478;10.182;2022-09-09T00:33:38;150.80;;;18.83;;
23743;SDS011;12052;53.478;10.182;2022-09-09T00:36:07;212.30;;;21.38;;
23743;SDS011;12052;53.478;10.182;2022-09-09T00:38:42;164.38;;;19.10;;
23743;SDS011;12052;53.478;10.182;2022-09-09T00:52:18;58.92;;;17.02;;
23743;SDS011;12052;53.478;10.182;2022-09-09T01:02:55;90.60;;;18.15;;
23743;SDS011;12052;53.478;10.182;2022-09-09T01:05:47;126.45;;;18.13;;
23743;SDS011;12052;53.478;10.182;2022-09-09T01:10:53;120.03;;;17.85;;
23743;SDS011;12052;53.478;10.182;2022-09-09T01:13:23;119.07;;;18.73;;
23743;SDS011;12052;53.478;10.182;2022-09-09T01:15:51;81.57;;;18.45;;
23743;SDS011;12052;53.478;10.182;2022-09-09T01:18:20;70.63;;;17.13;;
23743;SDS011;12052;53.478;10.182;2022-09-09T01:20:55;77.13;;;17.05;;
23743;SDS011;12052;53.478;10.182;2022-09-09T01:28:48;80.95;;;17.20;;
23743;SDS011;12052;53.478;10.182;2022-09-09T01:31:18;88.38;;;17.50;;
23743;SDS011;12052;53.478;10.182;2022-09-09T01:33:47;59.58;;;16.65;;
23743;SDS011;12052;53.478;10.182;2022-09-09T01:36:17;97.20;;;17.58;;
23743;SDS011;12052;53.478;10.182;2022-09-09T01:39:03;65.28;;;17.75;;
23743;SDS011;12052;53.478;10.182;2022-09-09T01:41:29;78.10;;;16.98;;
23743;SDS011;12052;53.478;10.182;2022-09-09T01:43:55;97.25;;;17.10;;
23743;SDS011;12052;53.478;10.182;2022-09-09T01:46:21;132.98;;;18.42;;
23743;SDS011;12052;53.478;10.182;2022-09-09T01:48:49;124.60;;;19.40;;
23743;SDS011;12052;53.478;10.182;2022-09-09T01:51:16;94.40;;;17.63;;
23743;SDS011;12052;53.478;10.182;2022-09-09T01:53:42;191.98;;;20.80;;
23743;SDS011;12052;53.478;10.182;2022-09-09T02:04:36;141.70;;;17.30;;
23743;SDS011;12052;53.478;10.182;2022-09-09T02:07:17;330.83;;;22.77;;
23743;SDS011;12052;53.478;10.182;2022-09-09T02:10:11;158.43;;;18.52;;
23743;SDS011;12052;53.478;10.182;2022-09-09T02:12:44;235.60;;;20.73;;
23743;SDS011;12052;53.478;10.182;2022-09-09T02:15:22;160.15;;;19.00;;
23743;SDS011;12052;53.478;10.182;2022-09-09T02:17:56;158.02;;;17.88;;
23743;SDS011;12052;53.478;10.182;2022-09-09T02:20:23;246.90;;;19.95;;
23743;SDS011;12052;53.478;10.182;2022-09-09T02:22:51;191.45;;;18.50;;
23743;SDS011;12052;53.478;10.182;2022-09-09T02:25:19;258.25;;;20.42;;
23743;SDS011;12052;53.478;10.182;2022-09-09T02:27:49;181.10;;;17.77;;
23743;SDS011;12052;53.478;10.182;2022-09-09T02:30:16;261.55;;;19.67;;
23743;SDS011;12052;53.478;10.182;2022-09-09T02:32:43;147.13;;;17.60;;
23743;SDS011;12052;53.478;10.182;2022-09-09T02:35:12;171.80;;;17.30;;
23743;SDS011;12052;53.478;10.182;2022-09-09T02:37:40;154.73;;;16.98;;
23743;SDS011;12052;53.478;10.182;2022-09-09T02:40:08;111.57;;;15.68;;
23743;SDS011;12052;53.478;10.182;2022-09-09T02:42:39;159.90;;;18.38;;
23743;SDS011;12052;53.478;10.182;2022-09-09T02:45:06;137.05;;;16.00;;
23743;SDS011;12052;53.478;10.182;2022-09-09T02:50:23;198.32;;;17.88;;
23743;SDS011;12052;53.478;10.182;2022-09-09T02:52:59;137.05;;;16.60;;
23743;SDS011;12052;53.478;10.182;2022-09-09T02:55:50;133.30;;;14.98;;
23743;SDS011;12052;53.478;10.182;2022-09-09T02:58:34;178.73;;;16.63;;
23743;SDS011;12052;53.478;10.182;2022-09-09T03:01:01;157.82;;;16.63;;
23743;SDS011;12052;53.478;10.182;2022-09-09T03:03:27;117.95;;;16.38;;
23743;SDS011;12052;53.478;10.182;2022-09-09T03:05:54;130.25;;;18.08;;
23743;SDS011;12052;53.478;10.182;2022-09-09T03:08:19;114.70;;;15.15;;
23743;SDS011;12052;53.478;10.182;2022-09-09T03:10:45;169.30;;;17.98;;
23743;SDS011;12052;53.478;10.182;2022-09-09T03:13:10;115.95;;;15.95;;
23743;SDS011;12052;53.478;10.182;2022-09-09T03:15:37;92.25;;;14.90;;
23743;SDS011;12052;53.478;10.182;2022-09-09T03:18:03;169.13;;;16.80;;
23743;SDS011;12052;53.478;10.182;2022-09-09T03:20:29;155.00;;;16.25;;
23743;SDS011;12052;53.478;10.182;2022-09-09T03:22:55;73.57;;;14.82;;
23743;SDS011;12052;53.478;10.182;2022-09-09T03:25:21;85.15;;;15.35;;
23743;SDS011;12052;53.478;10.182;2022-09-09T03:27:51;217.18;;;18.38;;
23743;SDS011;12052;53.478;10.182;2022-09-09T03:30:19;112.68;;;15.93;;
23743;SDS011;12052;53.478;10.182;2022-09-09T03:35:17;95.18;;;14.18;;
23743;SDS011;12052;53.478;10.182;2022-09-09T03:37:44;113.82;;;15.95;;
23743;SDS011;12052;53.478;10.182;2022-09-09T03:40:09;146.45;;;15.82;;
23743;SDS011;12052;53.478;10.182;2022-09-09T03:42:35;146.18;;;16.13;;
23743;SDS011;12052;53.478;10.182;2022-09-09T03:45:05;154.52;;;16.17;;
23743;SDS011;12052;53.478;10.182;2022-09-09T03:47:32;152.90;;;16.70;;
23743;SDS011;12052;53.478;10.182;2022-09-09T03:49:58;123.10;;;15.85;;
23743;SDS011;12052;53.478;10.182;2022-09-09T03:52:23;174.40;;;16.67;;
23743;SDS011;12052;53.478;10.182;2022-09-09T03:54:54;97.35;;;14.68;;
23743;SDS011;12052;53.478;10.182;2022-09-09T03:57:21;167.05;;;15.90;;
23743;SDS011;12052;53.478;10.182;2022-09-09T03:59:47;135.23;;;15.55;;
23743;SDS011;12052;53.478;10.182;2022-09-09T04:02:12;100.40;;;13.70;;
23743;SDS011;12052;53.478;10.182;2022-09-09T04:04:38;100.78;;;14.65;;
23743;SDS011;12052;53.478;10.182;2022-09-09T04:07:04;104.20;;;14.88;;
23743;SDS011;12052;53.478;10.182;2022-09-09T04:09:31;155.45;;;15.68;;
23743;SDS011;12052;53.478;10.182;2022-09-09T04:11:57;104.38;;;14.00;;
23743;SDS011;12052;53.478;10.182;2022-09-09T04:14:22;158.57;;;16.52;;
23743;SDS011;12052;53.478;10.182;2022-09-09T04:16:48;104.97;;;15.20;;
23743;SDS011;12052;53.478;10.182;2022-09-09T04:19:14;160.70;;;17.00;;
23743;SDS011;12052;53.478;10.182;2022-09-09T04:21:40;73.50;;;15.13;;
23743;SDS011;12052;53.478;10.182;2022-09-09T04:24:06;74.15;;;14.57;;
23743;SDS011;12052;53.478;10.182;2022-09-09T04:26:33;128.73;;;16.20;;
23743;SDS011;12052;53.478;10.182;2022-09-09T04:29:00;113.13;;;15.43;;
23743;SDS011;12052;53.478;10.182;2022-09-09T04:31:25;109.95;;;16.63;;
23743;SDS011;12052;53.478;10.182;2022-09-09T04:33:51;66.07;;;13.80;;
23743;SDS011;12052;53.478;10.182;2022-09-09T04:36:17;80.13;;;14.63;;
23743;SDS011;12052;53.478;10.182;2022-09-09T04:38:44;63.33;;;15.05;;
23743;SDS011;12052;53.478;10.182;2022-09-09T04:41:10;43.53;;;13.50;;
23743;SDS011;12052;53.478;10.182;2022-09-09T04:43:38;54.78;;;13.82;;
23743;SDS011;12052;53.478;10.182;2022-09-09T04:46:04;42.80;;;13.85;;
23743;SDS011;12052;53.478;10.182;2022-09-09T04:48:30;54.90;;;15.02;;
23743;SDS011;12052;53.478;10.182;2022-09-09T04:50:57;47.80;;;15.43;;
23743;SDS011;12052;53.478;10.182;2022-09-09T04:53:24;51.95;;;13.52;;
23743;SDS011;12052;53.478;10.182;2022-09-09T04:55:50;40.78;;;13.27;;
23743;SDS011;12052;53.478;10.182;2022-09-09T04:58:36;58.05;;;14.70;;
23743;SDS011;12052;53.478;10.182;2022-09-09T05:01:06;44.97;;;14.45;;
23743;SDS011;12052;53.478;10.182;2022-09-09T05:03:34;46.78;;;13.57;;
23743;SDS011;12052;53.478;10.182;2022-09-09T05:06:03;55.15;;;14.00;;
23743;SDS011;12052;53.478;10.182;2022-09-09T05:08:30;52.70;;;13.35;;
23743;SDS011;12052;53.478;10.182;2022-09-09T05:10:56;33.85;;;11.82;;
23743;SDS011;12052;53.478;10.182;2022-09-09T05:13:23;36.67;;;13.50;;
23743;SDS011;12052;53.478;10.182;2022-09-09T05:15:53;37.53;;;13.45;;
23743;SDS011;12052;53.478;10.182;2022-09-09T05:18:18;62.20;;;14.32;;
23743;SDS011;12052;53.478;10.182;2022-09-09T05:20:44;54.78;;;12.45;;
23743;SDS011;12052;53.478;10.182;2022-09-09T05:23:11;39.97;;;14.25;;
23743;SDS011;12052;53.478;10.182;2022-09-09T05:25:39;40.70;;;13.63;;
23743;SDS011;12052;53.478;10.182;2022-09-09T05:28:08;37.45;;;13.25;;
23743;SDS011;12052;53.478;10.182;2022-09-09T05:30:35;35.50;;;13.18;;
23743;SDS011;12052;53.478;10.182;2022-09-09T05:33:00;43.60;;;13.15;;
23743;SDS011;12052;53.478;10.182;2022-09-09T05:35:26;46.83;;;13.27;;
23743;SDS011;12052;53.478;10.182;2022-09-09T05:37:52;40.90;;;12.68;;
23743;SDS011;12052;53.478;10.182;2022-09-09T05:40:17;34.45;;;12.82;;
23743;SDS011;12052;53.478;10.182;2022-09-09T05:42:43;31.73;;;12.50;;
23743;SDS011;12052;53.478;10.182;2022-09-09T05:45:09;49.72;;;12.57;;
23743;SDS011;12052;53.478;10.182;2022-09-09T05:47:35;33.58;;;11.57;;
23743;SDS011;12052;53.478;10.182;2022-09-09T05:50:02;38.40;;;11.75;;
23743;SDS011;12052;53.478;10.182;2022-09-09T05:52:28;26.40;;;12.07;;
23743;SDS011;12052;53.478;10.182;2022-09-09T05:54:53;31.02;;;12.25;;
23743;SDS011;12052;53.478;10.182;2022-09-09T05:57:20;28.23;;;10.98;;
23743;SDS011;12052;53.478;10.182;2022-09-09T05:59:46;31.30;;;10.82;;
23743;SDS011;12052;53.478;10.182;2022-09-09T06:02:11;26.35;;;10.07;;
23743;SDS011;12052;53.478;10.182;2022-09-09T06:04:38;26.23;;;10.60;;
23743;SDS011;12052;53.478;10.182;2022-09-09T06:07:04;23.25;;;10.65;;
23743;SDS011;12052;53.478;10.182;2022-09-09T06:09:30;36.42;;;12.30;;
23743;SDS011;12052;53.478;10.182;2022-09-09T06:11:56;26.17;;;11.27;;
23743;SDS011;12052;53.478;10.182;2022-09-09T06:14:23;21.38;;;10.27;;
23743;SDS011;12052;53.478;10.182;2022-09-09T06:16:50;31.40;;;10.68;;
23743;SDS011;12052;53.478;10.182;2022-09-09T06:19:16;16.73;;;9.40;;
23743;SDS011;12052;53.478;10.182;2022-09-09T06:21:42;23.52;;;9.15;;
23743;SDS011;12052;53.478;10.182;2022-09-09T06:24:09;23.58;;;9.10;;
23743;SDS011;12052;53.478;10.182;2022-09-09T06:26:38;18.52;;;8.88;;
23743;SDS011;12052;53.478;10.182;2022-09-09T06:29:07;24.65;;;9.23;;
23743;SDS011;12052;53.478;10.182;2022-09-09T06:31:34;22.00;;;8.52;;
23743;SDS011;12052;53.478;10.182;2022-09-09T06:34:02;22.08;;;8.75;;
23743;SDS011;12052;53.478;10.182;2022-09-09T06:36:31;16.33;;;8.25;;
23743;SDS011;12052;53.478;10.182;2022-09-09T06:38:58;17.95;;;8.20;;
23743;SDS011;12052;53.478;10.182;2022-09-09T06:41:25;19.17;;;8.25;;
23743;SDS011;12052;53.478;10.182;2022-09-09T06:43:55;21.35;;;8.55;;
23743;SDS011;12052;53.478;10.182;2022-09-09T06:46:21;18.23;;;7.35;;
23743;SDS011;12052;53.478;10.182;2022-09-09T06:48:48;14.63;;;7.63;;
23743;SDS011;12052;53.478;10.182;2022-09-09T06:51:15;14.05;;;7.93;;
23743;SDS011;12052;53.478;10.182;2022-09-09T06:53:43;15.95;;;7.82;;
23743;SDS011;12052;53.478;10.182;2022-09-09T06:58:39;12.05;;;7.40;;
23743;SDS011;12052;53.478;10.182;2022-09-09T07:01:09;20.55;;;7.45;;
23743;SDS011;12052;53.478;10.182;2022-09-09T07:03:40;13.57;;;7.20;;
23743;SDS011;12052;53.478;10.182;2022-09-09T07:06:08;12.68;;;7.20;;
23743;SDS011;12052;53.478;10.182;2022-09-09T07:08:39;19.10;;;8.10;;
23743;SDS011;12052;53.478;10.182;2022-09-09T07:11:05;17.73;;;7.10;;
23743;SDS011;12052;53.478;10.182;2022-09-09T07:13:33;12.88;;;6.90;;
23743;SDS011;12052;53.478;10.182;2022-09-09T07:16:03;17.67;;;7.05;;
23743;SDS011;12052;53.478;10.182;2022-09-09T07:18:30;16.27;;;6.75;;
23743;SDS011;12052;53.478;10.182;2022-09-09T07:20:55;21.05;;;6.90;;
23743;SDS011;12052;53.478;10.182;2022-09-09T07:23:21;9.40;;;5.05;;
23743;SDS011;12052;53.478;10.182;2022-09-09T07:25:47;10.30;;;5.28;;
23743;SDS011;12052;53.478;10.182;2022-09-09T07:28:13;12.38;;;5.80;;
23743;SDS011;12052;53.478;10.182;2022-09-09T07:30:39;14.43;;;5.45;;
23743;SDS011;12052;53.478;10.182;2022-09-09T07:33:05;7.20;;;4.47;;
23743;SDS011;12052;53.478;10.182;2022-09-09T07:35:32;8.10;;;4.97;;
23743;SDS011;12052;53.478;10.182;2022-09-09T07:37:57;15.38;;;4.90;;
23743;SDS011;12052;53.478;10.182;2022-09-09T07:40:27;7.40;;;4.78;;
23743;SDS011;12052;53.478;10.182;2022-09-09T07:42:53;7.00;;;4.60;;
23743;SDS011;12052;53.478;10.182;2022-09-09T07:45:18;11.32;;;4.50;;
23743;SDS011;12052;53.478;10.182;2022-09-09T07:47:44;10.15;;;4.40;;
23743;SDS011;12052;53.478;10.182;2022-09-09T07:50:10;8.43;;;4.95;;
23743;SDS011;12052;53.478;10.182;2022-09-09T07:52:39;8.93;;;4.35;;
23743;SDS011;12052;53.478;10.182;2022-09-09T07:55:06;9.70;;;4.18;;
23743;SDS011;12052;53.478;10.182;2022-09-09T07:57:34;7.72;;;3.90;;
23743;SDS011;12052;53.478;10.182;2022-09-09T08:00:01;5.90;;;3.83;;
23743;SDS011;12052;53.478;10.182;2022-09-09T08:02:28;8.18;;;4.40;;
23743;SDS011;12052;53.478;10.182;2022-09-09T08:04:55;5.13;;;3.47;;
23743;SDS011;12052;53.478;10.182;2022-09-09T08:07:21;7.40;;;3.75;;
23743;SDS011;12052;53.478;10.182;2022-09-09T08:09:48;8.35;;;3.70;;
23743;SDS011;12052;53.478;10.182;2022-09-09T08:12:19;6.93;;;3.78;;
23743;SDS011;12052;53.478;10.182;2022-09-09T08:14:45;6.15;;;3.80;;
23743;SDS011;12052;53.478;10.182;2022-09-09T08:17:17;6.63;;;3.90;;
23743;SDS011;12052;53.478;10.182;2022-09-09T08:19:45;6.50;;;3.70;;
23743;SDS011;12052;53.478;10.182;2022-09-09T08:22:18;15.68;;;3.90;;
23743;SDS011;12052;53.478;10.182;2022-09-09T08:24:44;5.15;;;3.55;;
23743;SDS011;12052;53.478;10.182;2022-09-09T08:27:10;11.65;;;3.80;;
23743;SDS011;12052;53.478;10.182;2022-09-09T08:29:37;12.40;;;3.55;;
23743;SDS011;12052;53.478;10.182;2022-09-09T08:32:04;10.23;;;3.42;;
23743;SDS011;12052;53.478;10.182;2022-09-09T08:34:30;15.07;;;3.78;;
23743;SDS011;12052;53.478;10.182;2022-09-09T08:36:57;7.82;;;3.58;;
23743;SDS011;12052;53.478;10.182;2022-09-09T08:39:27;9.10;;;3.55;;
23743;SDS011;12052;53.478;10.182;2022-09-09T08:58:31;8.27;;;3.65;;
23743;SDS011;12052;53.478;10.182;2022-09-09T09:12:49;4.47;;;3.03;;
23743;SDS011;12052;53.478;10.182;2022-09-09T09:15:19;7.15;;;3.03;;
23743;SDS011;12052;53.478;10.182;2022-09-09T09:17:48;7.55;;;3.33;;
23743;SDS011;12052;53.478;10.182;2022-09-09T09:20:15;5.22;;;3.03;;
23743;SDS011;12052;53.478;10.182;2022-09-09T09:27:51;9.85;;;3.30;;
23743;SDS011;12052;53.478;10.182;2022-09-09T09:33:47;5.80;;;2.97;;
23743;SDS011;12052;53.478;10.182;2022-09-09T09:35:55;7.43;;;2.97;;
23743;SDS011;12052;53.478;10.182;2022-09-09T09:51:21;5.25;;;3.03;;
23743;SDS011;12052;53.478;10.182;2022-09-09T10:09:25;3.63;;;2.47;;
23743;SDS011;12052;53.478;10.182;2022-09-09T10:29:15;2.47;;;1.95;;
23743;SDS011;12052;53.478;10.182;2022-09-09T10:42:45;7.13;;;2.28;;
23743;SDS011;12052;53.478;10.182;2022-09-09T10:48:03;8.68;;;2.13;;
23743;SDS011;12052;53.478;10.182;2022-09-09T10:50:38;6.18;;;2.03;;
23743;SDS011;12052;53.478;10.182;2022-09-09T10:56:22;4.22;;;2.20;;
23743;SDS011;12052;53.478;10.182;2022-09-09T10:58:52;4.63;;;2.35;;
23743;SDS011;12052;53.478;10.182;2022-09-09T11:04:32;4.47;;;1.80;;
23743;SDS011;12052;53.478;10.182;2022-09-09T11:07:01;8.75;;;2.00;;
23743;SDS011;12052;53.478;10.182;2022-09-09T11:09:33;6.00;;;2.25;;
23743;SDS011;12052;53.478;10.182;2022-09-09T11:12:04;5.00;;;2.45;;
23743;SDS011;12052;53.478;10.182;2022-09-09T11:14:36;6.70;;;2.05;;
23743;SDS011;12052;53.478;10.182;2022-09-09T11:17:12;5.80;;;1.80;;
23743;SDS011;12052;53.478;10.182;2022-09-09T11:19:43;5.80;;;1.95;;
23743;SDS011;12052;53.478;10.182;2022-09-09T11:38:53;7.53;;;2.22;;
23743;SDS011;12052;53.478;10.182;2022-09-09T11:41:35;3.78;;;1.73;;
23743;SDS011;12052;53.478;10.182;2022-09-09T11:44:09;6.03;;;2.03;;
23743;SDS011;12052;53.478;10.182;2022-09-09T11:46:42;4.88;;;1.90;;
23743;SDS011;12052;53.478;10.182;2022-09-09T11:49:25;3.42;;;1.70;;
23743;SDS011;12052;53.478;10.182;2022-09-09T11:51:53;4.13;;;1.70;;
23743;SDS011;12052;53.478;10.182;2022-09-09T11:56:55;5.50;;;2.42;;
23743;SDS011;12052;53.478;10.182;2022-09-09T11:59:22;5.63;;;2.20;;
23743;SDS011;12052;53.478;10.182;2022-09-09T12:02:02;9.80;;;2.17;;
23743;SDS011;12052;53.478;10.182;2022-09-09T12:04:40;9.18;;;2.50;;
23743;SDS011;12052;53.478;10.182;2022-09-09T12:07:24;5.35;;;3.20;;
23743;SDS011;12052;53.478;10.182;2022-09-09T12:13:15;5.55;;;2.75;;
23743;SDS011;12052;53.478;10.182;2022-09-09T12:15:49;4.63;;;2.42;;
23743;SDS011;12052;53.478;10.182;2022-09-09T12:18:23;6.85;;;2.75;;
23743;SDS011;12052;53.478;10.182;2022-09-09T12:23:57;4.60;;;2.85;;
23743;SDS011;12052;53.478;10.182;2022-09-09T12:26:42;5.15;;;2.38;;
23743;SDS011;12052;53.478;10.182;2022-09-09T12:37:18;7.65;;;3.25;;
23743;SDS011;12052;53.478;10.182;2022-09-09T12:39:56;5.55;;;3.67;;
23743;SDS011;12052;53.478;10.182;2022-09-09T12:42:24;4.33;;;3.47;;
23743;SDS011;12052;53.478;10.182;2022-09-09T12:45:00;6.47;;;3.28;;
23743;SDS011;12052;53.478;10.182;2022-09-09T12:47:35;5.20;;;2.60;;
23743;SDS011;12052;53.478;10.182;2022-09-09T12:50:16;8.38;;;3.45;;
23743;SDS011;12052;53.478;10.182;2022-09-09T12:52:42;5.43;;;2.60;;
23743;SDS011;12052;53.478;10.182;2022-09-09T12:55:15;7.13;;;2.40;;
23743;SDS011;12052;53.478;10.182;2022-09-09T12:57:46;4.35;;;2.65;;
23743;SDS011;12052;53.478;10.182;2022-09-09T13:00:20;5.57;;;2.25;;
23743;SDS011;12052;53.478;10.182;2022-09-09T13:05:22;3.92;;;2.33;;
23743;SDS011;12052;53.478;10.182;2022-09-09T13:07:49;4.35;;;2.13;;
23743;SDS011;12052;53.478;10.182;2022-09-09T13:10:20;3.70;;;2.00;;
23743;SDS011;12052;53.478;10.182;2022-09-09T13:12:49;5.13;;;2.30;;
23743;SDS011;12052;53.478;10.182;2022-09-09T13:15:24;3.78;;;2.10;;
23743;SDS011;12052;53.478;10.182;2022-09-09T13:17:54;5.03;;;2.00;;
23743;SDS011;12052;53.478;10.182;2022-09-09T13:20:27;4.25;;;2.00;;
23743;SDS011;12052;53.478;10.182;2022-09-09T13:22:53;4.07;;;2.33;;
23743;SDS011;12052;53.478;10.182;2022-09-09T13:25:22;3.80;;;2.10;;
23743;SDS011;12052;53.478;10.182;2022-09-09T13:28:03;8.02;;;2.58;;
23743;SDS011;12052;53.478;10.182;2022-09-09T13:30:43;4.57;;;2.15;;
23743;SDS011;12052;53.478;10.182;2022-09-09T13:33:36;7.35;;;2.58;;
23743;SDS011;12052;53.478;10.182;2022-09-09T13:36:03;5.00;;;2.20;;
23743;SDS011;12052;53.478;10.182;2022-09-09T13:38:32;3.08;;;2.00;;
23743;SDS011;12052;53.478;10.182;2022-09-09T13:41:05;3.53;;;2.40;;
23743;SDS011;12052;53.478;10.182;2022-09-09T13:43:43;9.05;;;2.45;;
23743;SDS011;12052;53.478;10.182;2022-09-09T13:51:35;10.63;;;2.47;;
23743;SDS011;12052;53.478;10.182;2022-09-09T13:54:03;5.78;;;2.17;;
23743;SDS011;12052;53.478;10.182;2022-09-09T13:56:31;4.80;;;2.25;;
23743;SDS011;12052;53.478;10.182;2022-09-09T13:59:00;8.18;;;2.63;;
23743;SDS011;12052;53.478;10.182;2022-09-09T14:01:27;6.47;;;2.70;;
23743;SDS011;12052;53.478;10.182;2022-09-09T14:03:53;5.63;;;2.90;;
23743;SDS011;12052;53.478;10.182;2022-09-09T14:06:19;7.13;;;2.63;;
23743;SDS011;12052;53.478;10.182;2022-09-09T14:08:46;5.57;;;2.97;;
23743;SDS011;12052;53.478;10.182;2022-09-09T14:11:13;6.30;;;3.38;;
23743;SDS011;12052;53.478;10.182;2022-09-09T14:13:39;10.00;;;3.40;;
23743;SDS011;12052;53.478;10.182;2022-09-09T14:16:05;7.22;;;3.50;;
23743;SDS011;12052;53.478;10.182;2022-09-09T14:18:31;9.43;;;3.58;;
23743;SDS011;12052;53.478;10.182;2022-09-09T14:20:56;7.93;;;3.75;;
23743;SDS011;12052;53.478;10.182;2022-09-09T14:23:23;7.40;;;3.22;;
23743;SDS011;12052;53.478;10.182;2022-09-09T14:25:49;8.23;;;2.90;;
23743;SDS011;12052;53.478;10.182;2022-09-09T14:28:15;6.53;;;3.20;;
23743;SDS011;12052;53.478;10.182;2022-09-09T14:30:41;7.10;;;3.15;;
23743;SDS011;12052;53.478;10.182;2022-09-09T14:33:09;6.97;;;3.40;;
23743;SDS011;12052;53.478;10.182;2022-09-09T14:35:37;8.45;;;2.83;;
23743;SDS011;12052;53.478;10.182;2022-09-09T14:38:03;5.70;;;2.70;;
23743;SDS011;12052;53.478;10.182;2022-09-09T14:40:29;7.07;;;3.10;;
23743;SDS011;12052;53.478;10.182;2022-09-09T14:42:55;5.30;;;2.70;;
23743;SDS011;12052;53.478;10.182;2022-09-09T14:45:22;10.77;;;3.20;;
23743;SDS011;12052;53.478;10.182;2022-09-09T14:47:49;7.18;;;3.65;;
23743;SDS011;12052;53.478;10.182;2022-09-09T14:50:15;4.63;;;2.85;;
23743;SDS011;12052;53.478;10.182;2022-09-09T14:52:41;9.10;;;3.60;;
23743;SDS011;12052;53.478;10.182;2022-09-09T14:55:07;5.72;;;3.03;;
23743;SDS011;12052;53.478;10.182;2022-09-09T14:57:33;7.85;;;3.50;;
23743;SDS011;12052;53.478;10.182;2022-09-09T15:00:00;5.43;;;2.83;;
23743;SDS011;12052;53.478;10.182;2022-09-09T15:02:27;8.07;;;2.97;;
23743;SDS011;12052;53.478;10.182;2022-09-09T15:04:54;5.63;;;2.83;;
23743;SDS011;12052;53.478;10.182;2022-09-09T15:07:23;10.27;;;2.90;;
23743;SDS011;12052;53.478;10.182;2022-09-09T15:09:49;4.88;;;2.67;;
23743;SDS011;12052;53.478;10.182;2022-09-09T15:12:15;5.05;;;2.40;;
23743;SDS011;12052;53.478;10.182;2022-09-09T15:14:40;8.93;;;2.53;;
23743;SDS011;12052;53.478;10.182;2022-09-09T15:17:06;4.43;;;2.33;;
23743;SDS011;12052;53.478;10.182;2022-09-09T15:19:32;3.90;;;2.83;;
23743;SDS011;12052;53.478;10.182;2022-09-09T15:21:57;7.60;;;3.08;;
23743;SDS011;12052;53.478;10.182;2022-09-09T15:24:24;6.32;;;2.83;;
23743;SDS011;12052;53.478;10.182;2022-09-09T15:26:51;4.68;;;2.60;;
23743;SDS011;12052;53.478;10.182;2022-09-09T15:29:18;5.93;;;3.20;;
23743;SDS011;12052;53.478;10.182;2022-09-09T15:31:44;9.80;;;3.08;;
23743;SDS011;12052;53.478;10.182;2022-09-09T15:34:10;5.28;;;3.50;;
23743;SDS011;12052;53.478;10.182;2022-09-09T15:36:37;6.60;;;3.10;;
23743;SDS011;12052;53.478;10.182;2022-09-09T15:39:07;9.82;;;3.30;;
23743;SDS011;12052;53.478;10.182;2022-09-09T15:41:37;6.57;;;3.53;;
23743;SDS011;12052;53.478;10.182;2022-09-09T15:44:04;7.90;;;4.00;;
23743;SDS011;12052;53.478;10.182;2022-09-09T15:49:04;9.55;;;3.65;;
23743;SDS011;12052;53.478;10.182;2022-09-09T15:51:36;12.15;;;3.97;;
23743;SDS011;12052;53.478;10.182;2022-09-09T15:54:03;10.48;;;4.05;;
23743;SDS011;12052;53.478;10.182;2022-09-09T15:56:29;11.18;;;4.55;;
23743;SDS011;12052;53.478;10.182;2022-09-09T15:58:55;9.90;;;4.35;;
23743;SDS011;12052;53.478;10.182;2022-09-09T16:01:23;7.75;;;4.53;;
23743;SDS011;12052;53.478;10.182;2022-09-09T16:03:49;16.50;;;4.30;;
23743;SDS011;12052;53.478;10.182;2022-09-09T16:06:17;13.70;;;5.25;;
23743;SDS011;12052;53.478;10.182;2022-09-09T16:08:46;8.85;;;4.00;;
23743;SDS011;12052;53.478;10.182;2022-09-09T16:11:16;7.65;;;3.78;;
23743;SDS011;12052;53.478;10.182;2022-09-09T16:13:45;13.98;;;4.30;;
23743;SDS011;12052;53.478;10.182;2022-09-09T16:16:12;7.93;;;3.70;;
23743;SDS011;12052;53.478;10.182;2022-09-09T16:18:40;11.70;;;4.35;;
23743;SDS011;12052;53.478;10.182;2022-09-09T16:21:14;15.05;;;4.00;;
23743;SDS011;12052;53.478;10.182;2022-09-09T16:23:42;6.37;;;4.23;;
23743;SDS011;12052;53.478;10.182;2022-09-09T16:26:13;12.55;;;4.72;;
23743;SDS011;12052;53.478;10.182;2022-09-09T16:28:39;8.00;;;3.80;;
23743;SDS011;12052;53.478;10.182;2022-09-09T16:31:06;5.55;;;4.15;;
23743;SDS011;12052;53.478;10.182;2022-09-09T16:33:36;10.40;;;4.45;;
23743;SDS011;12052;53.478;10.182;2022-09-09T16:36:06;9.15;;;3.78;;
23743;SDS011;12052;53.478;10.182;2022-09-09T16:38:32;10.55;;;4.20;;
23743;SDS011;12052;53.478;10.182;2022-09-09T16:41:00;10.02;;;4.80;;
23743;SDS011;12052;53.478;10.182;2022-09-09T16:43:26;10.32;;;4.00;;
23743;SDS011;12052;53.478;10.182;2022-09-09T16:45:52;8.10;;;3.80;;
23743;SDS011;12052;53.478;10.182;2022-09-09T16:48:17;11.07;;;4.35;;
23743;SDS011;12052;53.478;10.182;2022-09-09T16:50:43;7.22;;;4.32;;
23743;SDS011;12052;53.478;10.182;2022-09-09T16:53:09;9.30;;;4.30;;
23743;SDS011;12052;53.478;10.182;2022-09-09T16:55:37;11.68;;;4.05;;
23743;SDS011;12052;53.478;10.182;2022-09-09T16:58:07;13.30;;;4.60;;
23743;SDS011;12052;53.478;10.182;2022-09-09T17:00:35;6.40;;;3.78;;
23743;SDS011;12052;53.478;10.182;2022-09-09T17:03:01;7.20;;;4.20;;
23743;SDS011;12052;53.478;10.182;2022-09-09T17:05:28;9.25;;;5.93;;
23743;SDS011;12052;53.478;10.182;2022-09-09T17:07:57;8.57;;;5.03;;
23743;SDS011;12052;53.478;10.182;2022-09-09T17:10:26;9.52;;;5.10;;
23743;SDS011;12052;53.478;10.182;2022-09-09T17:12:52;10.65;;;4.70;;
23743;SDS011;12052;53.478;10.182;2022-09-09T17:15:19;8.15;;;5.15;;
23743;SDS011;12052;53.478;10.182;2022-09-09T17:17:46;7.45;;;4.78;;
23743;SDS011;12052;53.478;10.182;2022-09-09T17:20:14;8.98;;;5.25;;
23743;SDS011;12052;53.478;10.182;2022-09-09T17:22:39;13.48;;;4.93;;
23743;SDS011;12052;53.478;10.182;2022-09-09T17:25:05;10.23;;;5.55;;
23743;SDS011;12052;53.478;10.182;2022-09-09T17:27:31;9.65;;;5.47;;
23743;SDS011;12052;53.478;10.182;2022-09-09T17:29:57;11.80;;;5.72;;
23743;SDS011;12052;53.478;10.182;2022-09-09T17:32:23;7.38;;;5.15;;
23743;SDS011;12052;53.478;10.182;2022-09-09T17:34:49;8.82;;;5.47;;
23743;SDS011;12052;53.478;10.182;2022-09-09T17:37:15;8.80;;;5.20;;
23743;SDS011;12052;53.478;10.182;2022-09-09T17:39:40;10.82;;;5.53;;
23743;SDS011;12052;53.478;10.182;2022-09-09T17:42:06;11.93;;;5.45;;
23743;SDS011;12052;53.478;10.182;2022-09-09T17:44:32;11.98;;;5.18;;
23743;SDS011;12052;53.478;10.182;2022-09-09T17:46:58;8.52;;;4.95;;
23743;SDS011;12052;53.478;10.182;2022-09-09T17:49:24;10.43;;;4.72;;